sensor_id;sensor_type;location;lat;lon;timestamp;P1;durP1;ratioP1;P2;durP2;ratioP2
53036;SDS011;38924;52.134;4.666;2022-07-29T00:00:59;696.50;;;637.13;;
53036;SDS011;38924;52.134;4.666;2022-07-29T00:03:25;706.88;;;647.72;;
53036;SDS011;38924;52.134;4.666;2022-07-29T00:05:50;689.08;;;630.90;;
53036;SDS011;38924;52.134;4.666;2022-07-29T00:08:18;719.28;;;659.90;;
53036;SDS011;38924;52.134;4.666;2022-07-29T00:10:44;718.22;;;658.47;;
53036;SDS011;38924;52.134;4.666;2022-07-29T00:13:10;699.38;;;642.95;;
53036;SDS011;38924;52.134;4.666;2022-07-29T00:15:36;703.50;;;644.88;;
53036;SDS011;38924;52.134;4.666;2022-07-29T00:18:01;697.33;;;639.70;;
53036;SDS011;38924;52.134;4.666;2022-07-29T00:20:27;699.35;;;641.85;;
53036;SDS011;38924;52.134;4.666;2022-07-29T00:22:53;694.45;;;636.92;;
53036;SDS011;38924;52.134;4.666;2022-07-29T00:25:21;673.38;;;616.58;;
53036;SDS011;38924;52.134;4.666;2022-07-29T00:27:47;694.03;;;636.92;;
53036;SDS011;38924;52.134;4.666;2022-07-29T00:30:13;667.70;;;613.78;;
53036;SDS011;38924;52.134;4.666;2022-07-29T00:32:39;686.33;;;628.97;;
53036;SDS011;38924;52.134;4.666;2022-07-29T00:35:04;676.88;;;620.80;;
53036;SDS011;38924;52.134;4.666;2022-07-29T00:37:49;682.47;;;627.17;;
53036;SDS011;38924;52.134;4.666;2022-07-29T00:40:14;669.97;;;614.83;;
53036;SDS011;38924;52.134;4.666;2022-07-29T00:42:43;641.50;;;588.63;;
53036;SDS011;38924;52.134;4.666;2022-07-29T00:45:10;683.17;;;626.67;;
53036;SDS011;38924;52.134;4.666;2022-07-29T00:47:35;647.45;;;594.80;;
53036;SDS011;38924;52.134;4.666;2022-07-29T00:50:01;650.22;;;596.67;;
53036;SDS011;38924;52.134;4.666;2022-07-29T00:52:28;673.88;;;618.33;;
53036;SDS011;38924;52.134;4.666;2022-07-29T00:54:54;650.97;;;596.90;;
53036;SDS011;38924;52.134;4.666;2022-07-29T00:57:19;669.33;;;612.20;;
53036;SDS011;38924;52.134;4.666;2022-07-29T00:59:45;665.03;;;609.35;;
53036;SDS011;38924;52.134;4.666;2022-07-29T01:02:11;631.53;;;578.85;;
53036;SDS011;38924;52.134;4.666;2022-07-29T01:04:36;666.50;;;610.90;;
53036;SDS011;38924;52.134;4.666;2022-07-29T01:07:02;652.47;;;599.53;;
53036;SDS011;38924;52.134;4.666;2022-07-29T01:09:31;685.45;;;628.42;;
53036;SDS011;38924;52.134;4.666;2022-07-29T01:11:57;655.50;;;601.85;;
53036;SDS011;38924;52.134;4.666;2022-07-29T01:14:24;624.80;;;573.45;;
53036;SDS011;38924;52.134;4.666;2022-07-29T01:17:07;630.92;;;578.45;;
53036;SDS011;38924;52.134;4.666;2022-07-29T01:22:02;652.80;;;599.03;;
53036;SDS011;38924;52.134;4.666;2022-07-29T01:25:40;640.47;;;588.08;;
53036;SDS011;38924;52.134;4.666;2022-07-29T01:27:38;656.70;;;602.60;;
53036;SDS011;38924;52.134;4.666;2022-07-29T01:30:07;615.92;;;565.10;;
53036;SDS011;38924;52.134;4.666;2022-07-29T01:32:33;658.10;;;603.13;;
53036;SDS011;38924;52.134;4.666;2022-07-29T01:35:03;649.47;;;595.67;;
53036;SDS011;38924;52.134;4.666;2022-07-29T01:37:33;644.08;;;590.88;;
53036;SDS011;38924;52.134;4.666;2022-07-29T01:40:02;637.88;;;584.10;;
53036;SDS011;38924;52.134;4.666;2022-07-29T01:42:42;620.90;;;569.88;;
53036;SDS011;38924;52.134;4.666;2022-07-29T01:45:10;633.80;;;581.25;;
53036;SDS011;38924;52.134;4.666;2022-07-29T01:47:50;595.38;;;546.63;;
53036;SDS011;38924;52.134;4.666;2022-07-29T01:50:19;632.88;;;580.85;;
53036;SDS011;38924;52.134;4.666;2022-07-29T01:52:48;633.60;;;581.38;;
53036;SDS011;38924;52.134;4.666;2022-07-29T01:55:15;625.63;;;574.25;;
53036;SDS011;38924;52.134;4.666;2022-07-29T01:57:42;625.25;;;573.20;;
53036;SDS011;38924;52.134;4.666;2022-07-29T02:00:08;633.95;;;581.10;;
53036;SDS011;38924;52.134;4.666;2022-07-29T02:02:41;660.13;;;606.25;;
53036;SDS011;38924;52.134;4.666;2022-07-29T02:05:07;659.13;;;604.38;;
53036;SDS011;38924;52.134;4.666;2022-07-29T02:07:34;620.65;;;569.67;;
53036;SDS011;38924;52.134;4.666;2022-07-29T02:10:05;628.17;;;575.78;;
53036;SDS011;38924;52.134;4.666;2022-07-29T02:12:31;633.83;;;581.28;;
53036;SDS011;38924;52.134;4.666;2022-07-29T02:14:59;607.90;;;556.83;;
53036;SDS011;38924;52.134;4.666;2022-07-29T02:17:26;615.65;;;564.58;;
53036;SDS011;38924;52.134;4.666;2022-07-29T02:19:56;654.03;;;600.40;;
53036;SDS011;38924;52.134;4.666;2022-07-29T02:22:22;637.42;;;583.92;;
53036;SDS011;38924;52.134;4.666;2022-07-29T02:24:48;621.72;;;571.47;;
53036;SDS011;38924;52.134;4.666;2022-07-29T02:27:15;659.97;;;603.92;;
53036;SDS011;38924;52.134;4.666;2022-07-29T02:29:42;639.83;;;588.10;;
53036;SDS011;38924;52.134;4.666;2022-07-29T02:32:08;630.75;;;577.53;;
53036;SDS011;38924;52.134;4.666;2022-07-29T02:34:35;643.17;;;589.80;;
53036;SDS011;38924;52.134;4.666;2022-07-29T02:37:03;641.53;;;587.58;;
53036;SDS011;38924;52.134;4.666;2022-07-29T02:39:29;635.60;;;580.90;;
53036;SDS011;38924;52.134;4.666;2022-07-29T02:41:57;617.88;;;566.83;;
53036;SDS011;38924;52.134;4.666;2022-07-29T02:44:24;632.35;;;580.58;;
53036;SDS011;38924;52.134;4.666;2022-07-29T02:47:27;614.88;;;564.05;;
53036;SDS011;38924;52.134;4.666;2022-07-29T02:49:47;588.05;;;538.90;;
53036;SDS011;38924;52.134;4.666;2022-07-29T02:52:24;635.53;;;583.08;;
53036;SDS011;38924;52.134;4.666;2022-07-29T02:57:27;624.65;;;574.70;;
53036;SDS011;38924;52.134;4.666;2022-07-29T02:59:57;617.90;;;566.17;;
53036;SDS011;38924;52.134;4.666;2022-07-29T03:02:25;587.33;;;539.38;;
53036;SDS011;38924;52.134;4.666;2022-07-29T03:04:53;626.17;;;574.55;;
53036;SDS011;38924;52.134;4.666;2022-07-29T03:07:21;616.60;;;566.65;;
53036;SDS011;38924;52.134;4.666;2022-07-29T03:09:47;595.40;;;546.78;;
53036;SDS011;38924;52.134;4.666;2022-07-29T03:12:14;612.40;;;560.97;;
53036;SDS011;38924;52.134;4.666;2022-07-29T03:14:40;584.22;;;535.78;;
53036;SDS011;38924;52.134;4.666;2022-07-29T03:17:06;619.17;;;566.97;;
53036;SDS011;38924;52.134;4.666;2022-07-29T03:19:35;588.88;;;540.03;;
53036;SDS011;38924;52.134;4.666;2022-07-29T03:22:04;600.20;;;551.30;;
53036;SDS011;38924;52.134;4.666;2022-07-29T03:24:31;618.08;;;567.95;;
53036;SDS011;38924;52.134;4.666;2022-07-29T03:26:57;624.15;;;573.25;;
53036;SDS011;38924;52.134;4.666;2022-07-29T03:29:23;598.90;;;548.78;;
53036;SDS011;38924;52.134;4.666;2022-07-29T03:31:49;611.75;;;560.50;;
53036;SDS011;38924;52.134;4.666;2022-07-29T03:34:14;576.92;;;530.00;;
53036;SDS011;38924;52.134;4.666;2022-07-29T03:36:40;623.40;;;573.00;;
53036;SDS011;38924;52.134;4.666;2022-07-29T03:39:06;587.40;;;538.20;;
53036;SDS011;38924;52.134;4.666;2022-07-29T03:41:33;601.60;;;551.25;;
53036;SDS011;38924;52.134;4.666;2022-07-29T03:43:59;604.75;;;554.38;;
53036;SDS011;38924;52.134;4.666;2022-07-29T03:46:25;596.40;;;547.95;;
53036;SDS011;38924;52.134;4.666;2022-07-29T03:48:52;618.10;;;566.05;;
53036;SDS011;38924;52.134;4.666;2022-07-29T03:51:21;628.30;;;576.45;;
53036;SDS011;38924;52.134;4.666;2022-07-29T03:53:47;610.95;;;560.40;;
53036;SDS011;38924;52.134;4.666;2022-07-29T03:56:14;602.70;;;552.53;;
53036;SDS011;38924;52.134;4.666;2022-07-29T03:58:41;607.42;;;556.97;;
53036;SDS011;38924;52.134;4.666;2022-07-29T04:01:06;604.78;;;555.80;;
53036;SDS011;38924;52.134;4.666;2022-07-29T04:03:33;619.05;;;567.17;;
53036;SDS011;38924;52.134;4.666;2022-07-29T04:05:59;609.90;;;559.08;;
53036;SDS011;38924;52.134;4.666;2022-07-29T04:08:25;591.20;;;542.15;;
53036;SDS011;38924;52.134;4.666;2022-07-29T04:10:51;600.30;;;551.47;;
53036;SDS011;38924;52.134;4.666;2022-07-29T04:13:18;621.05;;;569.88;;
53036;SDS011;38924;52.134;4.666;2022-07-29T04:15:45;622.35;;;570.88;;
53036;SDS011;38924;52.134;4.666;2022-07-29T04:18:11;622.90;;;571.45;;
53036;SDS011;38924;52.134;4.666;2022-07-29T04:20:36;603.85;;;554.88;;
53036;SDS011;38924;52.134;4.666;2022-07-29T04:23:04;615.67;;;563.83;;
53036;SDS011;38924;52.134;4.666;2022-07-29T04:25:30;607.83;;;557.42;;
53036;SDS011;38924;52.134;4.666;2022-07-29T04:27:55;604.70;;;554.45;;
53036;SDS011;38924;52.134;4.666;2022-07-29T04:30:27;611.55;;;561.85;;
53036;SDS011;38924;52.134;4.666;2022-07-29T04:32:53;630.28;;;578.08;;
53036;SDS011;38924;52.134;4.666;2022-07-29T04:35:19;628.88;;;577.53;;
53036;SDS011;38924;52.134;4.666;2022-07-29T04:37:45;588.95;;;540.08;;
53036;SDS011;38924;52.134;4.666;2022-07-29T04:40:11;615.90;;;565.45;;
53036;SDS011;38924;52.134;4.666;2022-07-29T04:42:37;598.88;;;549.75;;
53036;SDS011;38924;52.134;4.666;2022-07-29T04:45:03;617.65;;;567.42;;
53036;SDS011;38924;52.134;4.666;2022-07-29T04:47:29;608.45;;;558.05;;
53036;SDS011;38924;52.134;4.666;2022-07-29T04:49:55;609.85;;;558.58;;
53036;SDS011;38924;52.134;4.666;2022-07-29T04:52:21;610.75;;;560.05;;
53036;SDS011;38924;52.134;4.666;2022-07-29T04:54:47;638.40;;;584.78;;
53036;SDS011;38924;52.134;4.666;2022-07-29T04:57:13;592.53;;;543.53;;
53036;SDS011;38924;52.134;4.666;2022-07-29T04:59:39;606.20;;;556.83;;
53036;SDS011;38924;52.134;4.666;2022-07-29T05:02:04;612.25;;;562.20;;
53036;SDS011;38924;52.134;4.666;2022-07-29T05:04:30;642.50;;;588.90;;
53036;SDS011;38924;52.134;4.666;2022-07-29T05:06:56;609.35;;;558.83;;
53036;SDS011;38924;52.134;4.666;2022-07-29T05:09:21;610.72;;;560.05;;
53036;SDS011;38924;52.134;4.666;2022-07-29T05:11:47;624.40;;;571.63;;
53036;SDS011;38924;52.134;4.666;2022-07-29T05:14:13;623.17;;;571.70;;
53036;SDS011;38924;52.134;4.666;2022-07-29T05:16:39;618.10;;;566.15;;
53036;SDS011;38924;52.134;4.666;2022-07-29T05:19:05;644.90;;;591.47;;
53036;SDS011;38924;52.134;4.666;2022-07-29T05:21:31;629.95;;;578.53;;
53036;SDS011;38924;52.134;4.666;2022-07-29T05:24:00;610.80;;;560.63;;
53036;SDS011;38924;52.134;4.666;2022-07-29T05:26:26;637.40;;;583.67;;
53036;SDS011;38924;52.134;4.666;2022-07-29T05:28:52;638.65;;;586.08;;
53036;SDS011;38924;52.134;4.666;2022-07-29T05:31:19;608.22;;;557.55;;
53036;SDS011;38924;52.134;4.666;2022-07-29T05:33:44;617.78;;;566.00;;
53036;SDS011;38924;52.134;4.666;2022-07-29T05:36:10;640.38;;;588.08;;
53036;SDS011;38924;52.134;4.666;2022-07-29T05:38:38;622.22;;;571.15;;
53036;SDS011;38924;52.134;4.666;2022-07-29T05:41:04;633.30;;;580.72;;
53036;SDS011;38924;52.134;4.666;2022-07-29T05:43:30;614.58;;;564.80;;
53036;SDS011;38924;52.134;4.666;2022-07-29T05:45:56;647.83;;;595.30;;
53036;SDS011;38924;52.134;4.666;2022-07-29T05:48:22;654.75;;;601.03;;
53036;SDS011;38924;52.134;4.666;2022-07-29T05:50:47;634.38;;;581.03;;
53036;SDS011;38924;52.134;4.666;2022-07-29T05:53:13;675.50;;;618.97;;
53036;SDS011;38924;52.134;4.666;2022-07-29T05:55:39;652.67;;;598.38;;
53036;SDS011;38924;52.134;4.666;2022-07-29T05:58:05;699.75;;;640.92;;
53036;SDS011;38924;52.134;4.666;2022-07-29T06:00:30;739.85;;;678.17;;
53036;SDS011;38924;52.134;4.666;2022-07-29T06:02:56;751.65;;;687.53;;
53036;SDS011;38924;52.134;4.666;2022-07-29T06:05:22;781.45;;;714.83;;
53036;SDS011;38924;52.134;4.666;2022-07-29T06:07:48;799.08;;;731.80;;
53036;SDS011;38924;52.134;4.666;2022-07-29T06:10:14;838.30;;;766.08;;
53036;SDS011;38924;52.134;4.666;2022-07-29T06:12:39;903.55;;;822.33;;
53036;SDS011;38924;52.134;4.666;2022-07-29T06:15:05;917.28;;;834.90;;
53036;SDS011;38924;52.134;4.666;2022-07-29T06:17:31;1078.68;;;976.22;;
53036;SDS011;38924;52.134;4.666;2022-07-29T06:19:57;1149.28;;;999.90;;
53036;SDS011;38924;52.134;4.666;2022-07-29T06:22:22;1092.55;;;988.53;;
53036;SDS011;38924;52.134;4.666;2022-07-29T06:24:49;1207.88;;;999.90;;
53036;SDS011;38924;52.134;4.666;2022-07-29T06:27:15;1205.72;;;999.90;;
53036;SDS011;38924;52.134;4.666;2022-07-29T06:29:41;1154.00;;;999.90;;
53036;SDS011;38924;52.134;4.666;2022-07-29T06:32:07;1060.45;;;955.20;;
53036;SDS011;38924;52.134;4.666;2022-07-29T06:34:34;1105.05;;;993.00;;
53036;SDS011;38924;52.134;4.666;2022-07-29T06:37:00;1073.75;;;968.15;;
53036;SDS011;38924;52.134;4.666;2022-07-29T06:39:31;1025.15;;;927.70;;
53036;SDS011;38924;52.134;4.666;2022-07-29T06:41:58;1075.65;;;971.78;;
53036;SDS011;38924;52.134;4.666;2022-07-29T06:44:24;1025.50;;;924.92;;
53036;SDS011;38924;52.134;4.666;2022-07-29T06:46:50;1069.93;;;965.00;;
53036;SDS011;38924;52.134;4.666;2022-07-29T06:49:17;1003.80;;;908.10;;
53036;SDS011;38924;52.134;4.666;2022-07-29T06:51:42;1093.00;;;985.88;;
53036;SDS011;38924;52.134;4.666;2022-07-29T06:54:08;1140.65;;;999.90;;
53036;SDS011;38924;52.134;4.666;2022-07-29T06:56:34;1053.82;;;952.33;;
53036;SDS011;38924;52.134;4.666;2022-07-29T06:59:03;1116.45;;;995.90;;
53036;SDS011;38924;52.134;4.666;2022-07-29T07:01:31;1035.15;;;935.65;;
53036;SDS011;38924;52.134;4.666;2022-07-29T07:04:00;1089.22;;;981.22;;
53036;SDS011;38924;52.134;4.666;2022-07-29T07:06:26;1054.07;;;950.67;;
53036;SDS011;38924;52.134;4.666;2022-07-29T07:08:51;1248.63;;;999.90;;
53036;SDS011;38924;52.134;4.666;2022-07-29T07:11:20;1162.13;;;999.90;;
53036;SDS011;38924;52.134;4.666;2022-07-29T07:13:48;1182.40;;;999.90;;
53036;SDS011;38924;52.134;4.666;2022-07-29T07:16:14;1084.60;;;976.75;;
53036;SDS011;38924;52.134;4.666;2022-07-29T07:18:40;1202.80;;;999.90;;
53036;SDS011;38924;52.134;4.666;2022-07-29T07:21:05;1318.43;;;999.90;;
53036;SDS011;38924;52.134;4.666;2022-07-29T07:23:34;1281.22;;;999.90;;
53036;SDS011;38924;52.134;4.666;2022-07-29T07:25:59;1240.22;;;999.90;;
53036;SDS011;38924;52.134;4.666;2022-07-29T07:28:25;1250.97;;;999.90;;
53036;SDS011;38924;52.134;4.666;2022-07-29T07:30:51;1447.68;;;999.90;;
53036;SDS011;38924;52.134;4.666;2022-07-29T07:33:17;1438.43;;;999.90;;
53036;SDS011;38924;52.134;4.666;2022-07-29T07:35:43;1362.65;;;999.90;;
53036;SDS011;38924;52.134;4.666;2022-07-29T07:38:09;1253.18;;;999.90;;
53036;SDS011;38924;52.134;4.666;2022-07-29T07:40:35;1362.43;;;999.90;;
53036;SDS011;38924;52.134;4.666;2022-07-29T07:43:03;1422.85;;;999.90;;
53036;SDS011;38924;52.134;4.666;2022-07-29T07:45:29;1353.05;;;999.90;;
53036;SDS011;38924;52.134;4.666;2022-07-29T07:47:55;1365.93;;;999.90;;
53036;SDS011;38924;52.134;4.666;2022-07-29T07:50:20;1307.82;;;999.90;;
53036;SDS011;38924;52.134;4.666;2022-07-29T07:52:50;1345.60;;;999.90;;
53036;SDS011;38924;52.134;4.666;2022-07-29T07:55:16;1354.30;;;999.90;;
53036;SDS011;38924;52.134;4.666;2022-07-29T07:57:42;1467.43;;;999.90;;
53036;SDS011;38924;52.134;4.666;2022-07-29T08:00:08;1416.13;;;999.90;;
53036;SDS011;38924;52.134;4.666;2022-07-29T08:02:38;1375.00;;;999.90;;
53036;SDS011;38924;52.134;4.666;2022-07-29T08:05:05;1415.13;;;999.90;;
53036;SDS011;38924;52.134;4.666;2022-07-29T08:07:31;1434.65;;;999.90;;
53036;SDS011;38924;52.134;4.666;2022-07-29T08:09:56;1393.40;;;999.90;;
53036;SDS011;38924;52.134;4.666;2022-07-29T08:12:22;1396.55;;;999.90;;
53036;SDS011;38924;52.134;4.666;2022-07-29T08:14:48;1441.30;;;999.90;;
53036;SDS011;38924;52.134;4.666;2022-07-29T08:17:13;1447.30;;;999.90;;
53036;SDS011;38924;52.134;4.666;2022-07-29T08:19:39;1394.50;;;999.90;;
53036;SDS011;38924;52.134;4.666;2022-07-29T08:22:05;1440.20;;;999.90;;
53036;SDS011;38924;52.134;4.666;2022-07-29T08:24:30;1415.25;;;999.90;;
53036;SDS011;38924;52.134;4.666;2022-07-29T08:27:11;1420.10;;;999.90;;
53036;SDS011;38924;52.134;4.666;2022-07-29T08:29:37;1452.72;;;999.90;;
53036;SDS011;38924;52.134;4.666;2022-07-29T08:32:03;1413.15;;;999.90;;
53036;SDS011;38924;52.134;4.666;2022-07-29T08:34:29;1420.25;;;999.90;;
53036;SDS011;38924;52.134;4.666;2022-07-29T08:37:00;1362.70;;;999.90;;
53036;SDS011;38924;52.134;4.666;2022-07-29T08:39:26;1424.07;;;999.90;;
53036;SDS011;38924;52.134;4.666;2022-07-29T08:41:52;1411.38;;;999.90;;
53036;SDS011;38924;52.134;4.666;2022-07-29T08:44:18;1454.18;;;999.90;;
53036;SDS011;38924;52.134;4.666;2022-07-29T08:46:47;1293.20;;;999.90;;
53036;SDS011;38924;52.134;4.666;2022-07-29T08:49:13;1456.85;;;999.90;;
53036;SDS011;38924;52.134;4.666;2022-07-29T08:51:40;1391.10;;;999.90;;
53036;SDS011;38924;52.134;4.666;2022-07-29T08:54:07;1392.13;;;999.90;;
53036;SDS011;38924;52.134;4.666;2022-07-29T08:56:34;1377.47;;;999.90;;
53036;SDS011;38924;52.134;4.666;2022-07-29T08:58:59;1418.10;;;999.90;;
53036;SDS011;38924;52.134;4.666;2022-07-29T09:01:27;1413.78;;;999.90;;
53036;SDS011;38924;52.134;4.666;2022-07-29T09:03:55;1406.50;;;999.90;;
53036;SDS011;38924;52.134;4.666;2022-07-29T09:06:20;1367.40;;;999.90;;
53036;SDS011;38924;52.134;4.666;2022-07-29T09:08:49;1393.45;;;999.90;;
53036;SDS011;38924;52.134;4.666;2022-07-29T09:11:15;1358.50;;;999.90;;
53036;SDS011;38924;52.134;4.666;2022-07-29T09:13:41;1404.07;;;999.90;;
53036;SDS011;38924;52.134;4.666;2022-07-29T09:16:06;1443.97;;;999.90;;
53036;SDS011;38924;52.134;4.666;2022-07-29T09:18:39;1346.35;;;999.90;;
53036;SDS011;38924;52.134;4.666;2022-07-29T09:21:06;1348.10;;;999.90;;
53036;SDS011;38924;52.134;4.666;2022-07-29T09:24:10;1422.78;;;999.90;;
53036;SDS011;38924;52.134;4.666;2022-07-29T09:26:39;1371.43;;;999.90;;
53036;SDS011;38924;52.134;4.666;2022-07-29T09:29:12;1360.05;;;999.90;;
53036;SDS011;38924;52.134;4.666;2022-07-29T09:31:39;1391.57;;;999.90;;
53036;SDS011;38924;52.134;4.666;2022-07-29T09:34:06;1354.63;;;999.90;;
53036;SDS011;38924;52.134;4.666;2022-07-29T09:36:38;1373.20;;;999.90;;
53036;SDS011;38924;52.134;4.666;2022-07-29T09:39:07;1410.35;;;999.90;;
53036;SDS011;38924;52.134;4.666;2022-07-29T09:41:45;1384.95;;;999.90;;
53036;SDS011;38924;52.134;4.666;2022-07-29T09:44:11;1374.82;;;999.90;;
53036;SDS011;38924;52.134;4.666;2022-07-29T09:46:37;1386.78;;;999.90;;
53036;SDS011;38924;52.134;4.666;2022-07-29T09:49:09;1490.10;;;999.90;;
53036;SDS011;38924;52.134;4.666;2022-07-29T09:51:38;1401.47;;;999.90;;
53036;SDS011;38924;52.134;4.666;2022-07-29T09:56:49;1351.95;;;999.90;;
53036;SDS011;38924;52.134;4.666;2022-07-29T09:59:15;1401.15;;;999.90;;
53036;SDS011;38924;52.134;4.666;2022-07-29T10:01:40;1405.20;;;999.90;;
53036;SDS011;38924;52.134;4.666;2022-07-29T10:04:06;1352.60;;;999.90;;
53036;SDS011;38924;52.134;4.666;2022-07-29T10:06:32;1420.32;;;999.90;;
53036;SDS011;38924;52.134;4.666;2022-07-29T10:09:09;1404.80;;;999.90;;
53036;SDS011;38924;52.134;4.666;2022-07-29T10:11:35;1417.53;;;999.90;;
53036;SDS011;38924;52.134;4.666;2022-07-29T10:14:01;1419.30;;;999.90;;
53036;SDS011;38924;52.134;4.666;2022-07-29T10:16:28;1422.90;;;999.90;;
53036;SDS011;38924;52.134;4.666;2022-07-29T10:19:00;1437.93;;;999.90;;
53036;SDS011;38924;52.134;4.666;2022-07-29T10:21:27;1444.72;;;999.90;;
53036;SDS011;38924;52.134;4.666;2022-07-29T10:23:53;1427.47;;;999.90;;
53036;SDS011;38924;52.134;4.666;2022-07-29T10:26:19;1413.45;;;999.90;;
53036;SDS011;38924;52.134;4.666;2022-07-29T10:28:45;1358.93;;;999.90;;
53036;SDS011;38924;52.134;4.666;2022-07-29T10:31:12;1375.93;;;999.90;;
53036;SDS011;38924;52.134;4.666;2022-07-29T10:42:11;1430.95;;;999.90;;
53036;SDS011;38924;52.134;4.666;2022-07-29T10:44:40;1372.50;;;999.90;;
53036;SDS011;38924;52.134;4.666;2022-07-29T10:47:27;1388.78;;;999.90;;
53036;SDS011;38924;52.134;4.666;2022-07-29T10:49:55;1419.22;;;999.90;;
53036;SDS011;38924;52.134;4.666;2022-07-29T10:52:20;1426.72;;;999.90;;
53036;SDS011;38924;52.134;4.666;2022-07-29T10:54:49;1400.05;;;999.90;;
53036;SDS011;38924;52.134;4.666;2022-07-29T10:57:17;1349.10;;;999.90;;
53036;SDS011;38924;52.134;4.666;2022-07-29T11:07:26;1375.07;;;999.90;;
53036;SDS011;38924;52.134;4.666;2022-07-29T11:15:08;1419.03;;;999.90;;
53036;SDS011;38924;52.134;4.666;2022-07-29T11:20:36;1368.55;;;999.90;;
53036;SDS011;38924;52.134;4.666;2022-07-29T11:23:21;1371.00;;;999.90;;
53036;SDS011;38924;52.134;4.666;2022-07-29T11:31:04;1365.18;;;999.90;;
53036;SDS011;38924;52.134;4.666;2022-07-29T11:33:31;1369.72;;;999.90;;
53036;SDS011;38924;52.134;4.666;2022-07-29T11:36:07;1350.85;;;999.90;;
53036;SDS011;38924;52.134;4.666;2022-07-29T11:38:32;1396.25;;;999.90;;
53036;SDS011;38924;52.134;4.666;2022-07-29T11:41:18;1374.38;;;999.90;;
53036;SDS011;38924;52.134;4.666;2022-07-29T11:43:48;1339.28;;;999.90;;
53036;SDS011;38924;52.134;4.666;2022-07-29T11:49:02;1371.60;;;999.90;;
53036;SDS011;38924;52.134;4.666;2022-07-29T11:51:27;1379.95;;;999.90;;
53036;SDS011;38924;52.134;4.666;2022-07-29T11:53:53;1388.88;;;999.90;;
53036;SDS011;38924;52.134;4.666;2022-07-29T11:56:21;1386.95;;;999.90;;
53036;SDS011;38924;52.134;4.666;2022-07-29T11:58:46;1357.03;;;999.90;;
53036;SDS011;38924;52.134;4.666;2022-07-29T12:01:13;1328.05;;;999.90;;
53036;SDS011;38924;52.134;4.666;2022-07-29T12:03:42;1383.80;;;999.90;;
53036;SDS011;38924;52.134;4.666;2022-07-29T12:06:13;1357.68;;;999.90;;
53036;SDS011;38924;52.134;4.666;2022-07-29T12:08:42;1364.53;;;999.90;;
53036;SDS011;38924;52.134;4.666;2022-07-29T12:11:15;1326.90;;;999.90;;
53036;SDS011;38924;52.134;4.666;2022-07-29T12:13:40;1354.70;;;999.90;;
53036;SDS011;38924;52.134;4.666;2022-07-29T12:16:06;1352.60;;;999.90;;
53036;SDS011;38924;52.134;4.666;2022-07-29T12:18:32;1353.05;;;999.90;;
53036;SDS011;38924;52.134;4.666;2022-07-29T12:21:01;1338.63;;;999.90;;
53036;SDS011;38924;52.134;4.666;2022-07-29T12:23:30;1379.00;;;999.90;;
53036;SDS011;38924;52.134;4.666;2022-07-29T12:25:57;1358.45;;;999.90;;
53036;SDS011;38924;52.134;4.666;2022-07-29T12:28:23;1333.55;;;999.90;;
53036;SDS011;38924;52.134;4.666;2022-07-29T12:30:49;1350.22;;;999.90;;
53036;SDS011;38924;52.134;4.666;2022-07-29T12:33:24;1355.13;;;999.90;;
53036;SDS011;38924;52.134;4.666;2022-07-29T12:35:51;1337.13;;;999.90;;
53036;SDS011;38924;52.134;4.666;2022-07-29T12:38:18;1310.57;;;999.90;;
53036;SDS011;38924;52.134;4.666;2022-07-29T12:40:45;1315.05;;;999.90;;
53036;SDS011;38924;52.134;4.666;2022-07-29T12:43:14;1334.95;;;999.90;;
53036;SDS011;38924;52.134;4.666;2022-07-29T12:45:42;1314.90;;;999.90;;
53036;SDS011;38924;52.134;4.666;2022-07-29T12:48:08;1275.28;;;999.90;;
53036;SDS011;38924;52.134;4.666;2022-07-29T12:50:35;1304.00;;;999.90;;
53036;SDS011;38924;52.134;4.666;2022-07-29T12:53:08;1317.03;;;999.90;;
53036;SDS011;38924;52.134;4.666;2022-07-29T12:55:47;1309.03;;;978.55;;
53036;SDS011;38924;52.134;4.666;2022-07-29T12:58:29;1348.78;;;999.90;;
53036;SDS011;38924;52.134;4.666;2022-07-29T13:03:46;1294.35;;;999.90;;
53036;SDS011;38924;52.134;4.666;2022-07-29T13:06:31;1342.53;;;999.90;;
53036;SDS011;38924;52.134;4.666;2022-07-29T13:08:58;1306.00;;;999.90;;
53036;SDS011;38924;52.134;4.666;2022-07-29T13:11:28;1346.05;;;999.90;;
53036;SDS011;38924;52.134;4.666;2022-07-29T13:13:53;1321.00;;;999.90;;
53036;SDS011;38924;52.134;4.666;2022-07-29T13:16:19;1333.43;;;999.90;;
53036;SDS011;38924;52.134;4.666;2022-07-29T13:18:45;1331.63;;;999.90;;
53036;SDS011;38924;52.134;4.666;2022-07-29T13:21:12;1334.13;;;999.90;;
53036;SDS011;38924;52.134;4.666;2022-07-29T13:23:38;1363.05;;;999.90;;
53036;SDS011;38924;52.134;4.666;2022-07-29T13:26:10;1276.65;;;999.90;;
53036;SDS011;38924;52.134;4.666;2022-07-29T13:28:37;1363.53;;;999.90;;
53036;SDS011;38924;52.134;4.666;2022-07-29T13:31:04;1359.93;;;999.90;;
53036;SDS011;38924;52.134;4.666;2022-07-29T13:33:30;1333.53;;;999.90;;
53036;SDS011;38924;52.134;4.666;2022-07-29T13:35:56;1334.25;;;999.90;;
53036;SDS011;38924;52.134;4.666;2022-07-29T13:38:21;1301.22;;;999.90;;
53036;SDS011;38924;52.134;4.666;2022-07-29T13:40:47;1422.30;;;999.90;;
53036;SDS011;38924;52.134;4.666;2022-07-29T13:43:13;1327.15;;;999.90;;
53036;SDS011;38924;52.134;4.666;2022-07-29T13:45:38;1318.43;;;999.90;;
53036;SDS011;38924;52.134;4.666;2022-07-29T13:48:04;1338.72;;;999.90;;
53036;SDS011;38924;52.134;4.666;2022-07-29T13:50:31;1355.25;;;999.90;;
53036;SDS011;38924;52.134;4.666;2022-07-29T13:52:58;1429.18;;;999.90;;
53036;SDS011;38924;52.134;4.666;2022-07-29T13:55:23;1308.40;;;999.90;;
53036;SDS011;38924;52.134;4.666;2022-07-29T13:57:49;1377.43;;;999.90;;
53036;SDS011;38924;52.134;4.666;2022-07-29T14:00:15;1366.95;;;999.90;;
53036;SDS011;38924;52.134;4.666;2022-07-29T14:02:41;1386.57;;;999.90;;
53036;SDS011;38924;52.134;4.666;2022-07-29T14:05:07;1359.10;;;999.90;;
53036;SDS011;38924;52.134;4.666;2022-07-29T14:07:33;1321.70;;;999.90;;
53036;SDS011;38924;52.134;4.666;2022-07-29T14:09:59;1279.20;;;999.90;;
53036;SDS011;38924;52.134;4.666;2022-07-29T14:12:24;1392.65;;;999.90;;
53036;SDS011;38924;52.134;4.666;2022-07-29T14:14:50;1382.18;;;999.90;;
53036;SDS011;38924;52.134;4.666;2022-07-29T14:17:16;1479.32;;;999.90;;
53036;SDS011;38924;52.134;4.666;2022-07-29T14:19:42;1380.82;;;999.90;;
53036;SDS011;38924;52.134;4.666;2022-07-29T14:22:08;1406.40;;;999.90;;
53036;SDS011;38924;52.134;4.666;2022-07-29T14:24:37;1403.07;;;999.90;;
53036;SDS011;38924;52.134;4.666;2022-07-29T14:27:03;1402.80;;;999.90;;
53036;SDS011;38924;52.134;4.666;2022-07-29T14:29:29;1357.20;;;999.90;;
53036;SDS011;38924;52.134;4.666;2022-07-29T14:31:55;1379.57;;;999.90;;
53036;SDS011;38924;52.134;4.666;2022-07-29T14:34:26;1381.93;;;999.90;;